Time;durP1;ratioP1;P1;durP2;ratioP2;P2;SDS_P1;SDS_P2;PMS_P1;PMS_P2;Temp;Humidity;BMP_temperature;BMP_pressure;BME280_temperature;BME280_humidity;BME280_pressure;Samples;Min_cycle;Max_cycle;Signal;HPM_P1;HPM_P2
2022/02/21 00:00:08;;;;;;;;;7.67;3.67;;;;;13.77;100.00;100498.66;5054968;28;45523;-90
2022/02/21 00:02:33;;;;;;;;;3.00;3.00;;;;;13.70;100.00;100513.41;5056098;28;45505;-91
2022/02/21 00:04:59;;;;;;;;;7.00;3.00;;;;;13.64;100.00;100495.66;5054498;28;45910;-91
2022/02/21 00:07:24;;;;;;;;;6.00;2.00;;;;;13.53;100.00;100508.50;5053446;28;45381;-92
2022/02/21 00:09:49;;;;;;;;;9.00;4.00;;;;;13.41;100.00;100532.78;5053109;28;45671;-91
2022/02/21 00:12:15;;;;;;;;;5.33;4.00;;;;;13.37;100.00;100557.25;5053375;28;46075;-91
2022/02/21 00:14:40;;;;;;;;;7.00;2.33;;;;;13.29;100.00;100563.19;5053691;28;46183;-92
2022/02/21 00:17:06;;;;;;;;;7.00;4.33;;;;;13.22;100.00;100582.28;5054644;28;45535;-91
2022/02/21 00:19:31;;;;;;;;;3.00;1.00;;;;;13.22;100.00;100579.63;5053312;28;45530;-90
2022/02/21 00:21:56;;;;;;;;;7.00;2.00;;;;;13.10;100.00;100569.63;5054126;28;46750;-92
2022/02/21 00:24:22;;;;;;;;;9.33;4.00;;;;;13.13;100.00;100603.97;5054039;28;45479;-91
2022/02/21 00:26:47;;;;;;;;;4.67;3.67;;;;;13.06;100.00;100608.16;5055707;28;45449;-91
2022/02/21 00:29:13;;;;;;;;;2.67;2.00;;;;;13.07;100.00;100625.75;5054772;28;45357;-91
2022/02/21 00:31:38;;;;;;;;;3.00;2.00;;;;;13.08;100.00;100631.91;5056550;28;46273;-91
2022/02/21 00:34:03;;;;;;;;;8.00;3.00;;;;;13.06;100.00;100618.69;5056173;28;45715;-91
2022/02/21 00:36:29;;;;;;;;;2.67;1.00;;;;;13.04;100.00;100640.56;5056128;28;45477;-91
2022/02/21 00:38:54;;;;;;;;;1.33;0.33;;;;;12.94;100.00;100644.59;5053644;28;45511;-92
2022/02/21 00:41:19;;;;;;;;;7.33;2.67;;;;;12.84;100.00;100651.31;5070573;28;48033;-91
2022/02/21 00:43:45;;;;;;;;;7.67;4.00;;;;;12.73;100.00;100650.97;5050761;28;45478;-92
2022/02/21 00:46:10;;;;;;;;;3.00;2.33;;;;;12.75;100.00;100670.34;5066029;28;45558;-92
2022/02/21 00:48:35;;;;;;;;;1.00;1.00;;;;;12.67;100.00;100656.00;5053245;28;45647;-91
2022/02/21 00:51:01;;;;;;;;;10.67;2.67;;;;;12.65;100.00;100674.38;5051853;28;46746;-91
2022/02/21 00:53:26;;;;;;;;;2.33;1.67;;;;;12.62;100.00;100697.97;5053352;28;45333;-90
2022/02/21 00:55:52;;;;;;;;;2.00;2.00;;;;;12.54;100.00;100702.06;5053701;28;45385;-91
2022/02/21 00:58:17;;;;;;;;;2.67;1.33;;;;;12.38;100.00;100694.50;5053883;28;45372;-92
2022/02/21 01:00:43;;;;;;;;;4.00;1.00;;;;;12.21;100.00;100738.59;5051317;28;48071;-91
2022/02/21 01:03:08;;;;;;;;;1.67;0.33;;;;;12.09;100.00;100731.06;5053394;28;45726;-92
2022/02/21 01:05:34;;;;;;;;;3.67;1.00;;;;;11.87;100.00;100731.97;5070445;28;45771;-90
2022/02/21 01:08:00;;;;;;;;;1.00;0.00;;;;;11.81;100.00;100690.53;5055574;28;45324;-91
2022/02/21 01:10:25;;;;;;;;;2.33;0.67;;;;;11.62;100.00;100695.97;5053349;28;47466;-91
2022/02/21 01:12:51;;;;;;;;;1.00;1.00;;;;;11.50;100.00;100691.13;5069344;27;45515;-91
2022/02/21 01:15:16;;;;;;;;;0.00;0.00;;;;;11.37;100.00;100699.31;5040678;28;45431;-91
2022/02/21 01:17:43;;;;;;;;;1.00;0.67;;;;;11.33;100.00;100703.56;5053286;28;45414;-92
2022/02/21 01:20:10;;;;;;;;;0.67;0.67;;;;;11.24;100.00;100711.06;5053848;28;47878;-91
2022/02/21 01:22:35;;;;;;;;;2.00;2.00;;;;;11.18;100.00;100714.34;5053190;28;45386;-91
2022/02/21 01:25:01;;;;;;;;;0.00;0.00;;;;;11.13;100.00;100716.75;5053568;28;45469;-91
2022/02/21 01:27:26;;;;;;;;;1.00;1.00;;;;;11.07;100.00;100711.25;5049308;28;45444;-91
2022/02/21 01:29:52;;;;;;;;;0.00;0.00;;;;;11.05;100.00;100713.81;5052835;28;47416;-91
2022/02/21 01:32:18;;;;;;;;;3.00;1.00;;;;;11.11;100.00;100730.66;5055001;28;45387;-92
2022/02/21 01:34:43;;;;;;;;;1.00;1.00;;;;;11.10;100.00;100745.53;5052735;28;45441;-91
2022/02/21 01:37:09;;;;;;;;;3.00;2.00;;;;;11.14;100.00;100780.69;5054943;28;45768;-91
2022/02/21 01:39:35;;;;;;;;;1.00;1.00;;;;;11.09;100.00;100803.25;5054347;28;48477;-92
2022/02/21 01:42:00;;;;;;;;;1.00;0.00;;;;;11.01;100.00;100785.44;5052712;28;45408;-92
2022/02/21 01:44:36;;;;;;;;;1.67;0.33;;;;;11.01;100.00;100724.09;5051212;28;45504;-91
2022/02/21 01:47:03;;;;;;;;;2.00;0.00;;;;;10.77;100.00;100753.72;5053059;28;45499;-91
2022/02/21 01:49:28;;;;;;;;;0.00;0.00;;;;;10.65;100.00;100733.97;5053062;28;47285;-92
2022/02/21 01:51:53;;;;;;;;;1.00;1.00;;;;;10.65;100.00;100740.94;5052135;28;46007;-92
2022/02/21 01:54:19;;;;;;;;;0.00;0.00;;;;;10.58;100.00;100732.81;5054696;28;45351;-92
2022/02/21 01:56:44;;;;;;;;;0.67;0.67;;;;;10.57;100.00;100732.72;5070228;28;45416;-92
2022/02/21 01:59:10;;;;;;;;;1.33;1.33;;;;;10.52;100.00;100734.22;5053850;28;47212;-91
2022/02/21 02:01:35;;;;;;;;;0.00;0.00;;;;;10.44;100.00;100718.09;5053062;28;45415;-92
2022/02/21 02:04:01;;;;;;;;;5.00;1.00;;;;;10.33;100.00;100704.50;5053002;28;45463;-93
2022/02/21 02:06:28;;;;;;;;;0.33;0.00;;;;;10.45;100.00;100735.66;5053060;28;45344;-91
2022/02/21 02:08:54;;;;;;;;;3.00;1.00;;;;;10.36;100.00;100708.16;5053113;28;47288;-92
2022/02/21 02:11:19;;;;;;;;;0.00;0.00;;;;;10.32;100.00;100702.72;5070185;28;45298;-91
2022/02/21 02:13:49;;;;;;;;;2.33;1.33;;;;;10.44;100.00;100716.38;5054841;28;45472;-92
2022/02/21 02:16:15;;;;;;;;;1.00;0.67;;;;;10.38;100.00;100703.91;5057127;28;45415;-92
2022/02/21 02:18:40;;;;;;;;;5.00;1.00;;;;;10.28;100.00;100691.19;5054817;28;46384;-92
2022/02/21 02:21:05;;;;;;;;;3.00;2.00;;;;;10.34;100.00;100707.19;5068218;28;45189;-92
2022/02/21 02:23:31;;;;;;;;;6.00;2.67;;;;;10.37;100.00;100719.56;5075153;28;44741;-91
2022/02/21 02:25:56;;;;;;;;;6.67;1.00;;;;;10.35;100.00;100703.75;5078542;27;45428;-91
2022/02/21 02:28:25;;;;;;;;;2.00;1.00;;;;;10.43;100.00;100705.81;5081887;27;46931;-92
2022/02/21 02:30:50;;;;;;;;;3.00;0.00;;;;;10.40;100.00;100703.97;5053657;28;45540;-92
2022/02/21 02:33:15;;;;;;;;;3.33;2.00;;;;;10.41;100.00;100715.34;5042221;28;45581;-92
2022/02/21 02:35:40;;;;;;;;;2.33;2.33;;;;;10.36;100.00;100713.41;5052316;28;47480;-91
2022/02/21 02:38:06;;;;;;;;;1.00;1.00;;;;;10.40;100.00;100711.84;5054338;28;46738;-92
2022/02/21 02:40:33;;;;;;;;;2.33;1.00;;;;;10.42;100.00;100717.13;5069007;28;45442;-92
2022/02/21 02:42:59;;;;;;;;;1.67;1.00;;;;;10.41;100.00;100718.84;5053660;28;45511;-92
2022/02/21 02:45:25;;;;;;;;;8.33;2.33;;;;;10.38;100.00;100700.38;5050651;28;45606;-90
2022/02/21 02:47:50;;;;;;;;;3.33;2.00;;;;;10.38;100.00;100706.53;5052426;28;48103;-91
2022/02/21 02:50:15;;;;;;;;;4.33;1.33;;;;;10.46;100.00;100714.72;5052921;28;45534;-91
2022/02/21 02:52:41;;;;;;;;;2.67;2.00;;;;;10.46;100.00;100726.97;5051539;28;45785;-90
2022/02/21 02:55:07;;;;;;;;;2.33;2.33;;;;;10.44;100.00;100718.09;5051736;28;45413;-91
2022/02/21 02:57:32;;;;;;;;;2.33;2.00;;;;;10.36;100.00;100710.78;5052380;28;45455;-91
2022/02/21 02:59:58;;;;;;;;;2.67;2.33;;;;;10.45;100.00;100733.94;5050974;28;45964;-91
2022/02/21 03:02:23;;;;;;;;;4.00;2.00;;;;;10.42;100.00;100728.53;5053290;28;45364;-91
2022/02/21 03:04:49;;;;;;;;;4.67;2.00;;;;;10.40;100.00;100730.19;5056296;28;45303;-91
2022/02/21 03:07:14;;;;;;;;;4.67;2.00;;;;;10.41;100.00;100739.84;5055788;28;46197;-89
2022/02/21 03:09:39;;;;;;;;;9.33;3.67;;;;;10.39;100.00;100725.78;5055780;28;45548;-91
2022/02/21 03:12:05;;;;;;;;;1.33;1.00;;;;;10.39;100.00;100731.00;5055654;28;45781;-91
2022/02/21 03:14:31;;;;;;;;;4.33;3.33;;;;;10.36;100.00;100731.78;5056077;28;45473;-90
2022/02/21 03:16:56;;;;;;;;;9.00;3.67;;;;;10.42;100.00;100725.91;5055618;28;46386;-90
2022/02/21 03:19:24;;;;;;;;;3.33;1.33;;;;;10.38;100.00;100719.66;5054501;28;45519;-90
2022/02/21 03:21:51;;;;;;;;;7.00;4.00;;;;;10.44;100.00;100739.09;5068332;27;45363;-90
2022/02/21 03:24:17;;;;;;;;;9.00;2.33;;;;;10.44;100.00;100739.09;5041960;28;45619;-91
2022/02/21 03:26:42;;;;;;;;;9.33;3.33;;;;;10.43;100.00;100738.22;5053544;28;48119;-91
2022/02/21 03:29:07;;;;;;;;;6.00;2.00;;;;;10.45;100.00;100743.53;5055151;28;46063;-90
2022/02/21 03:31:33;;;;;;;;;6.67;3.00;;;;;10.38;100.00;100747.59;5053454;28;48580;-90
2022/02/21 03:33:58;;;;;;;;;9.00;2.67;;;;;10.39;100.00;100736.25;5054279;28;45467;-90
2022/02/21 03:36:23;;;;;;;;;8.00;3.33;;;;;10.41;100.00;100758.22;5050313;28;51054;-91
2022/02/21 03:38:49;;;;;;;;;3.00;2.00;;;;;10.45;100.00;100756.66;5053452;28;45730;-90
2022/02/21 03:41:14;;;;;;;;;6.00;2.67;;;;;10.41;100.00;100760.84;5051435;28;45389;-90
2022/02/21 03:43:40;;;;;;;;;5.33;2.33;;;;;10.47;100.00;100761.13;5053926;28;45282;-91
2022/02/21 03:46:05;;;;;;;;;3.00;2.00;;;;;10.50;100.00;100742.00;5048167;28;47287;-90
2022/02/21 03:48:31;;;;;;;;;5.67;3.67;;;;;10.54;100.00;100736.09;5045243;28;45346;-91
2022/02/21 03:50:56;;;;;;;;;3.67;1.00;;;;;10.52;100.00;100748.25;5049689;28;45420;-91
2022/02/21 03:53:21;;;;;;;;;4.33;2.00;;;;;10.49;100.00;100746.34;5051935;28;45331;-90
2022/02/21 03:55:47;;;;;;;;;6.00;2.00;;;;;10.55;100.00;100772.03;5070612;28;47301;-92
2022/02/21 03:58:12;;;;;;;;;7.33;2.00;;;;;10.58;100.00;100773.91;5053308;28;45392;-90
2022/02/21 04:00:38;;;;;;;;;1.00;1.00;;;;;10.57;100.00;100761.59;5053980;28;45455;-90
2022/02/21 04:03:03;;;;;;;;;2.00;2.00;;;;;10.60;100.00;100743.34;5053742;28;45369;-91
2022/02/21 04:05:28;;;;;;;;;4.67;2.00;;;;;10.64;100.00;100752.28;5052264;28;46883;-90
2022/02/21 04:07:54;;;;;;;;;1.00;0.67;;;;;10.62;100.00;100760.06;5055315;28;45411;-91
2022/02/21 04:10:20;;;;;;;;;5.67;1.33;;;;;10.53;100.00;100734.31;5053013;28;45391;-90
2022/02/21 04:12:46;;;;;;;;;3.33;2.00;;;;;10.57;100.00;100753.72;5054669;28;45411;-89
2022/02/21 04:15:12;;;;;;;;;5.67;1.33;;;;;10.55;100.00;100752.75;5052126;28;47069;-90
2022/02/21 04:17:47;;;;;;;;;5.33;2.67;;;;;10.60;100.00;100766.97;5054600;28;45363;-90
2022/02/21 04:20:21;;;;;;;;;2.67;2.00;;;;;10.58;100.00;100764.31;5055617;28;45349;-90
2022/02/21 04:22:46;;;;;;;;;2.67;1.00;;;;;10.52;100.00;100763.09;5053831;28;45443;-91
2022/02/21 04:25:14;;;;;;;;;2.00;1.00;;;;;10.54;100.00;100758.84;5052383;28;47230;-91
2022/02/21 04:27:46;;;;;;;;;6.00;2.00;;;;;10.60;100.00;100761.72;5054621;28;45435;-91
2022/02/21 04:30:18;;;;;;;;;6.33;0.67;;;;;10.50;100.00;100763.91;5052871;28;45328;-91
2022/02/21 04:32:46;;;;;;;;;1.67;1.33;;;;;10.36;100.00;100750.13;5053288;28;45302;-91
2022/02/21 04:35:12;;;;;;;;;7.33;2.00;;;;;10.35;100.00;100750.09;5054762;28;45456;-91
2022/02/21 04:37:38;;;;;;;;;5.67;2.67;;;;;10.38;100.00;100755.47;5049359;28;45293;-90
2022/02/21 04:40:06;;;;;;;;;6.33;2.00;;;;;10.33;100.00;100728.13;5049119;28;45471;-90
2022/02/21 04:42:32;;;;;;;;;2.00;1.00;;;;;10.33;100.00;100736.91;5052950;28;45406;-92
2022/02/21 04:44:57;;;;;;;;;3.67;3.00;;;;;10.28;100.00;100718.31;5054366;28;45591;-91
2022/02/21 04:47:22;;;;;;;;;6.00;2.67;;;;;10.35;100.00;100752.69;5069974;28;45430;-91
2022/02/21 04:49:48;;;;;;;;;1.67;1.67;;;;;10.35;100.00;100747.47;5070600;28;45758;-91
2022/02/21 04:52:13;;;;;;;;;2.33;2.00;;;;;10.38;100.00;100752.84;5053713;28;45450;-92
2022/02/21 04:54:38;;;;;;;;;6.00;2.00;;;;;10.38;100.00;100730.16;5052143;28;47127;-91
2022/02/21 04:57:04;;;;;;;;;8.67;2.00;;;;;10.39;100.00;100721.41;5053626;28;45523;-91
2022/02/21 04:59:30;;;;;;;;;2.00;1.00;;;;;10.41;100.00;100733.72;5054870;28;45634;-89
2022/02/21 05:01:55;;;;;;;;;4.00;4.00;;;;;10.41;100.00;100737.22;5052818;28;45378;-89
2022/02/21 05:04:20;;;;;;;;;1.00;1.00;;;;;10.35;100.00;100739.59;5052263;28;47120;-89
2022/02/21 05:06:46;;;;;;;;;9.00;2.00;;;;;10.43;100.00;100748.72;5045656;28;45556;-89
2022/02/21 05:09:11;;;;;;;;;7.33;1.00;;;;;10.43;100.00;100743.47;5040839;28;45306;-89
2022/02/21 05:11:36;;;;;;;;;3.00;1.67;;;;;10.40;100.00;100740.69;5054266;28;45306;-92
2022/02/21 05:14:02;;;;;;;;;6.00;2.00;;;;;10.42;100.00;100746.91;5054654;28;45436;-90
2022/02/21 05:16:27;;;;;;;;;1.00;1.00;;;;;10.34;100.00;100736.06;5053011;28;45501;-91
2022/02/21 05:18:52;;;;;;;;;0.67;0.00;;;;;10.40;100.00;100756.44;5053811;28;45794;-90
2022/02/21 05:21:18;;;;;;;;;6.00;1.67;;;;;10.42;100.00;100752.16;5053742;28;45741;-90
2022/02/21 05:23:43;;;;;;;;;2.00;1.67;;;;;10.46;100.00;100758.47;5052360;28;47830;-89
2022/02/21 05:26:09;;;;;;;;;1.67;1.00;;;;;10.53;100.00;100759.66;5064170;28;45326;-89
2022/02/21 05:28:35;;;;;;;;;1.67;1.67;;;;;10.45;100.00;100747.06;5017802;28;45363;-90
2022/02/21 05:31:00;;;;;;;;;4.67;1.00;;;;;10.45;100.00;100739.19;5055069;28;45509;-90
2022/02/21 05:33:25;;;;;;;;;2.00;1.00;;;;;10.43;100.00;100743.47;5054357;28;45389;-90
2022/02/21 05:35:51;;;;;;;;;1.00;0.33;;;;;10.45;100.00;100778.53;5052674;28;45455;-89
2022/02/21 05:38:16;;;;;;;;;1.67;0.00;;;;;10.40;100.00;100756.44;5054308;28;47310;-89
2022/02/21 05:40:42;;;;;;;;;4.00;1.33;;;;;10.37;100.00;100754.56;5052865;28;45408;-90
2022/02/21 05:43:07;;;;;;;;;4.33;2.00;;;;;10.34;100.00;100758.78;5052702;28;47291;-90
2022/02/21 05:45:32;;;;;;;;;1.33;1.00;;;;;10.23;100.00;100753.03;5053347;28;45507;-90
2022/02/21 05:47:58;;;;;;;;;2.00;1.00;;;;;10.16;100.00;100752.75;5053889;28;45476;-90
2022/02/21 05:50:23;;;;;;;;;3.67;1.67;;;;;10.11;100.00;100749.00;5052771;28;45490;-90
2022/02/21 05:52:49;;;;;;;;;1.67;1.67;;;;;10.03;100.00;100748.63;5046924;28;46962;-91
2022/02/21 05:55:14;;;;;;;;;1.00;1.00;;;;;10.05;100.00;100762.72;5048795;28;45651;-90
2022/02/21 05:57:40;;;;;;;;;1.67;1.67;;;;;9.93;100.00;100752.53;5053211;28;45406;-91
2022/02/21 06:00:06;;;;;;;;;1.67;1.00;;;;;10.02;100.00;100766.94;5054594;28;45315;-90
2022/02/21 06:02:31;;;;;;;;;1.33;1.00;;;;;10.00;100.00;100772.09;5080041;28;48623;-90
2022/02/21 06:04:59;;;;;;;;;2.67;0.67;;;;;9.94;100.00;100764.84;5080771;27;45200;-90
2022/02/21 06:07:24;;;;;;;;;0.00;0.00;;;;;9.94;100.00;100774.44;5080282;27;44882;-91
2022/02/21 06:09:49;;;;;;;;;0.00;0.00;;;;;9.90;100.00;100772.47;5075757;28;44874;-90
2022/02/21 06:12:15;;;;;;;;;1.00;1.00;;;;;9.89;100.00;100773.31;5062899;28;47298;-91
2022/02/21 06:14:40;;;;;;;;;1.00;0.67;;;;;9.94;100.00;100774.44;5053725;28;45226;-90
2022/02/21 06:17:06;;;;;;;;;1.33;0.67;;;;;9.98;100.00;100791.19;5052898;28;45368;-89
2022/02/21 06:19:31;;;;;;;;;2.33;1.00;;;;;9.97;100.00;100781.53;5050693;28;45329;-90
2022/02/21 06:21:57;;;;;;;;;1.00;0.00;;;;;9.93;100.00;100781.38;5051097;28;48051;-91
2022/02/21 06:24:24;;;;;;;;;1.00;0.00;;;;;9.99;100.00;100783.41;5051028;28;45557;-89
2022/02/21 06:26:49;;;;;;;;;2.33;1.00;;;;;10.02;100.00;100788.81;5052827;28;45591;-89
2022/02/21 06:29:14;;;;;;;;;1.00;0.67;;;;;10.02;100.00;100796.69;5048170;28;45634;-90
2022/02/21 06:31:40;;;;;;;;;1.67;0.00;;;;;10.00;100.00;100789.56;5050153;28;47014;-90
2022/02/21 06:34:07;;;;;;;;;0.00;0.00;;;;;10.03;100.00;100795.84;5046055;28;45896;-90
2022/02/21 06:36:32;;;;;;;;;0.00;0.00;;;;;10.05;100.00;100806.44;5041080;28;45325;-90
2022/02/21 06:38:58;;;;;;;;;0.00;0.00;;;;;10.03;100.00;100805.44;5052594;28;45423;-89
2022/02/21 06:41:23;;;;;;;;;1.00;0.00;;;;;10.07;100.00;100812.63;5052871;28;45480;-90
2022/02/21 06:43:49;;;;;;;;;0.33;0.33;;;;;10.05;100.00;100817.78;5069032;28;46151;-90
2022/02/21 06:46:14;;;;;;;;;0.00;0.00;;;;;9.97;100.00;100818.25;5046059;28;45595;-90
2022/02/21 06:48:39;;;;;;;;;2.00;1.00;;;;;10.03;100.00;100815.91;5052122;28;45415;-90
2022/02/21 06:51:05;;;;;;;;;1.67;0.67;;;;;10.00;100.00;100821.03;5045545;28;48215;-90
2022/02/21 06:53:30;;;;;;;;;0.67;0.00;;;;;9.97;100.00;100828.75;5047420;28;45342;-90
2022/02/21 06:55:56;;;;;;;;;2.33;1.00;;;;;9.95;100.00;100831.28;5069116;28;45359;-90
2022/02/21 06:58:21;;;;;;;;;0.00;0.00;;;;;9.93;100.00;100836.47;5051456;28;45487;-90
2022/02/21 07:00:47;;;;;;;;;2.00;2.00;;;;;9.91;100.00;100845.06;5053037;28;46927;-90
2022/02/21 07:03:12;;;;;;;;;1.00;1.00;;;;;9.89;100.00;100837.13;5044994;28;46047;-90
2022/02/21 07:05:39;;;;;;;;;0.00;0.00;;;;;10.01;100.00;100854.28;5052263;28;45544;-90
2022/02/21 07:08:05;;;;;;;;;1.00;1.00;;;;;10.03;100.00;100852.63;5069293;28;45536;-90
2022/02/21 07:10:30;;;;;;;;;0.33;0.33;;;;;10.01;100.00;100855.19;5052388;28;46289;-89
2022/02/21 07:12:55;;;;;;;;;1.67;0.00;;;;;9.94;100.00;100839.97;5052350;28;46176;-90
2022/02/21 07:15:21;;;;;;;;;1.67;1.00;;;;;9.99;100.00;100851.59;5046541;28;49156;-90
2022/02/21 07:17:47;;;;;;;;;0.67;0.33;;;;;9.94;100.00;100856.63;5053516;28;45555;-89
2022/02/21 07:20:15;;;;;;;;;1.00;1.00;;;;;10.01;100.00;100863.06;5043837;28;47352;-89
2022/02/21 07:22:41;;;;;;;;;2.33;1.33;;;;;10.01;100.00;100860.44;5049439;28;45911;-89
2022/02/21 07:25:08;;;;;;;;;1.67;1.00;;;;;10.14;100.00;100864.56;5052482;28;45480;-89
2022/02/21 07:27:42;;;;;;;;;1.00;1.00;;;;;10.24;100.00;100865.91;5050520;28;45518;-87
2022/02/21 07:30:09;;;;;;;;;2.67;0.00;;;;;10.30;100.00;100872.28;5040468;28;46487;-87
2022/02/21 07:32:35;;;;;;;;;2.00;1.00;;;;;10.32;100.00;100860.13;5052014;28;45526;-86
2022/02/21 07:35:02;;;;;;;;;2.33;1.00;;;;;10.44;100.00;100873.84;5059186;28;45474;-86
2022/02/21 07:37:28;;;;;;;;;1.00;1.00;;;;;10.42;100.00;100865.00;5042033;28;45389;-85
2022/02/21 07:39:53;;;;;;;;;0.67;0.00;;;;;10.45;100.00;100851.13;5046544;28;46412;-85
2022/02/21 07:42:20;;;;;;;;;4.67;2.00;;;;;10.48;100.00;100856.53;5050130;28;45380;-88
2022/02/21 07:44:45;;;;;;;;;5.33;2.00;;;;;10.49;100.00;100853.06;5051358;28;45361;-87
2022/02/21 07:47:10;;;;;;;;;3.00;1.00;;;;;10.54;100.00;100864.69;5050540;28;45327;-86
2022/02/21 07:49:36;;;;;;;;;2.33;1.00;;;;;10.60;100.00;100862.38;5051108;28;46221;-88
2022/02/21 07:52:01;;;;;;;;;1.67;0.00;;;;;10.75;100.00;100856.03;5053866;28;45941;-87
2022/02/21 07:54:27;;;;;;;;;2.00;2.00;;;;;10.95;100.00;100864.84;5055821;28;45515;-87
2022/02/21 07:56:53;;;;;;;;;2.33;0.33;;;;;11.08;100.00;100877.66;5053719;28;45531;-87
2022/02/21 07:59:18;;;;;;;;;7.00;2.67;;;;;11.21;100.00;100861.59;5047725;28;45467;-87
2022/02/21 08:01:43;;;;;;;;;6.00;2.00;;;;;11.28;100.00;100879.44;5049941;28;45787;-87
2022/02/21 08:04:09;;;;;;;;;2.00;1.00;;;;;11.29;100.00;100877.69;5050387;28;45514;-87
2022/02/21 08:06:34;;;;;;;;;2.00;1.00;;;;;11.25;100.00;100860.91;5053590;28;45549;-87
2022/02/21 08:08:59;;;;;;;;;4.00;1.67;;;;;11.24;100.00;100860.81;5054363;28;45651;-87
2022/02/21 08:11:25;;;;;;;;;1.00;1.00;;;;;11.29;100.00;100869.81;5063910;28;45392;-86
2022/02/21 08:13:54;;;;;;;;;2.33;0.00;;;;;11.34;100.00;100884.06;5047664;28;45417;-87
2022/02/21 08:16:19;;;;;;;;;4.33;2.00;;;;;11.43;100.00;100878.31;5077160;27;45230;-88
2022/02/21 08:18:44;;;;;;;;;2.33;1.00;;;;;11.49;100.00;100869.81;5058871;28;45563;-88
2022/02/21 08:21:10;;;;;;;;;1.00;1.00;;;;;11.62;100.00;100871.25;5046681;28;45489;-86
2022/02/21 08:23:35;;;;;;;;;3.00;1.00;;;;;11.78;100.00;100859.63;5047577;28;45352;-85
2022/02/21 08:26:00;;;;;;;;;8.33;2.67;;;;;11.84;100.00;100885.28;5068955;28;45530;-85
2022/02/21 08:28:26;;;;;;;;;3.00;2.00;;;;;11.83;100.00;100873.88;5049192;28;45650;-88
2022/02/21 08:30:51;;;;;;;;;3.33;2.00;;;;;11.80;100.00;100871.09;5054894;28;45561;-87
2022/02/21 08:33:16;;;;;;;;;2.00;2.00;;;;;11.85;100.00;100866.94;5057333;28;45518;-88
2022/02/21 08:35:42;;;;;;;;;2.67;1.67;;;;;11.95;100.00;100873.50;5055588;28;45473;-87
2022/02/21 08:38:07;;;;;;;;;2.67;1.67;;;;;12.11;100.00;100867.97;5054905;28;47170;-87
2022/02/21 08:40:32;;;;;;;;;3.67;2.00;;;;;12.25;100.00;100881.72;5046559;28;48135;-88
2022/02/21 08:42:57;;;;;;;;;3.67;3.00;;;;;12.29;100.00;100888.91;5048582;28;45612;-87
2022/02/21 08:45:23;;;;;;;;;3.00;2.00;;;;;12.29;100.00;100888.91;5055682;28;54489;-86
2022/02/21 08:47:48;;;;;;;;;3.67;2.00;;;;;12.35;100.00;100890.88;5058014;28;45297;-86
2022/02/21 08:50:14;;;;;;;;;1.00;1.00;;;;;12.34;100.00;100878.56;5056600;28;45388;-87
2022/02/21 08:52:41;;;;;;;;;4.67;3.33;;;;;12.31;100.00;100878.44;5054150;28;45442;-87
2022/02/21 08:55:15;;;;;;;;;2.00;2.00;;;;;12.36;100.00;100900.59;5054242;28;45511;-87
2022/02/21 08:57:41;;;;;;;;;6.00;3.00;;;;;12.27;100.00;100894.09;5055655;28;46549;-87
2022/02/21 09:00:08;;;;;;;;;2.00;1.00;;;;;12.36;100.00;100914.66;5057108;28;46025;-87
2022/02/21 09:02:34;;;;;;;;;7.00;4.00;;;;;12.25;100.00;100901.03;5055672;28;45409;-87
2022/02/21 09:04:59;;;;;;;;;7.33;1.00;;;;;12.22;100.00;100903.53;5053013;28;45486;-87
2022/02/21 09:07:25;;;;;;;;;4.67;2.00;;;;;12.29;100.00;100899.44;5054451;28;45542;-86
2022/02/21 09:09:50;;;;;;;;;2.00;1.00;;;;;12.52;100.00;100884.56;5057948;28;49749;-87
2022/02/21 09:12:15;;;;;;;;;2.33;2.33;;;;;12.86;100.00;100894.59;5050205;28;45502;-87
2022/02/21 09:14:46;;;;;;;;;4.00;4.00;;;;;12.88;100.00;100900.84;5058671;28;45656;-87
2022/02/21 09:17:12;;;;;;;;;2.00;1.33;;;;;13.04;100.00;100902.31;5046047;28;46354;-87
2022/02/21 09:19:37;;;;;;;;;2.00;2.00;;;;;13.20;100.00;100913.44;5054266;28;45377;-87
2022/02/21 09:22:03;;;;;;;;;2.67;1.00;;;;;13.26;100.00;100910.13;5052556;28;45514;-87
2022/02/21 09:24:28;;;;;;;;;3.00;1.00;;;;;13.21;100.00;100903.78;5055836;28;45338;-87
2022/02/21 09:26:54;;;;;;;;;2.67;1.00;;;;;13.26;100.00;100887.31;5055510;28;45378;-86
2022/02/21 09:29:20;;;;;;;;;3.00;1.00;;;;;13.25;100.00;100887.25;5052503;28;45346;-87
2022/02/21 09:31:45;;;;;;;;;2.00;1.33;;;;;13.22;100.00;100872.22;5041910;28;45528;-87
2022/02/21 09:34:11;;;;;;;;;2.00;1.00;;;;;13.22;100.00;100895.94;5046108;28;45495;-87
2022/02/21 09:36:36;;;;;;;;;5.33;3.00;;;;;13.36;100.00;100898.19;5055154;28;46475;-87
2022/02/21 09:39:03;;;;;;;;;4.00;1.67;;;;;13.54;100.00;100887.41;5054204;28;45823;-87
2022/02/21 09:41:30;;;;;;;;;1.33;1.00;;;;;13.47;100.00;100888.03;5050205;28;45557;-87
2022/02/21 09:43:55;;;;;;;;;2.67;1.67;;;;;13.43;100.00;100896.66;5051749;28;45330;-87
2022/02/21 09:46:29;;;;;;;;;4.67;2.00;;;;;13.58;100.00;100896.38;5059979;28;46527;-87
2022/02/21 09:48:57;;;;;;;;;7.00;1.33;;;;;13.63;100.00;100881.59;5058935;28;45478;-88
2022/02/21 09:51:23;;;;;;;;;4.00;1.33;;;;;13.76;100.00;100877.63;5058829;28;45350;-88
2022/02/21 09:53:49;;;;;;;;;3.33;2.00;;;;;13.91;100.00;100908.94;5054603;28;45254;-86
2022/02/21 09:56:14;;;;;;;;;2.33;1.00;;;;;13.94;100.00;100906.38;5054064;28;45475;-86
2022/02/21 09:58:40;;;;;;;;;2.00;2.00;;;;;14.04;100.00;100902.34;5047187;28;45328;-88
2022/02/21 10:01:05;;;;;;;;;8.00;3.00;;;;;14.10;100.00;100921.81;5045538;28;45431;-87
2022/02/21 10:03:36;;;;;;;;;3.67;3.00;;;;;14.14;100.00;100943.13;5052702;28;45465;-87
2022/02/21 10:06:18;;;;;;;;;3.00;2.67;;;;;14.23;100.00;100925.78;5051767;28;45426;-86
2022/02/21 10:09:11;;;;;;;;;2.67;1.67;;;;;14.34;100.00;100936.69;5040452;28;45533;-86
2022/02/21 10:11:40;;;;;;;;;1.67;1.67;;;;;14.38;100.00;100941.25;5049866;28;45562;-87
2022/02/21 10:14:09;;;;;;;;;2.00;2.00;;;;;14.50;100.00;100939.00;5043160;28;45709;-87
2022/02/21 10:16:56;;;;;;;;;2.00;1.33;;;;;14.50;100.00;100946.03;5050108;28;46447;-87
2022/02/21 10:19:24;;;;;;;;;3.00;3.00;;;;;14.47;100.00;100938.91;5052617;28;45230;-88
2022/02/21 10:22:01;;;;;;;;;3.67;1.00;;;;;14.55;100.00;100928.59;5052368;28;45492;-86
2022/02/21 10:24:28;;;;;;;;;1.67;1.67;;;;;14.56;100.00;100940.94;5041114;28;45497;-87
2022/02/21 10:27:04;;;;;;;;;7.67;2.00;;;;;14.72;100.00;100938.78;5051661;28;45352;-86
2022/02/21 10:29:30;;;;;;;;;1.00;0.00;;;;;14.70;100.00;100943.13;5054918;28;45380;-86
2022/02/21 10:32:07;;;;;;;;;2.00;2.00;;;;;14.78;100.00;100946.91;5053288;28;45360;-88
2022/02/21 10:34:34;;;;;;;;;3.33;2.00;;;;;14.77;100.00;100955.66;5050439;28;45495;-86
2022/02/21 10:36:59;;;;;;;;;2.67;1.33;;;;;14.79;100.00;100939.88;5051420;28;45709;-87
2022/02/21 10:39:25;;;;;;;;;6.00;2.00;;;;;14.74;100.00;100935.31;5050678;28;46127;-88
2022/02/21 10:41:54;;;;;;;;;4.33;3.00;;;;;14.64;100.00;100949.09;5052052;28;45685;-87
2022/02/21 10:44:23;;;;;;;;;4.67;3.00;;;;;14.60;100.00;100929.63;5053409;28;45329;-88
2022/02/21 10:46:59;;;;;;;;;7.00;3.33;;;;;14.70;100.00;100944.03;5051950;28;46261;-87
2022/02/21 10:49:25;;;;;;;;;5.33;2.00;;;;;14.56;100.00;100935.66;5050705;28;45546;-86
2022/02/21 10:51:50;;;;;;;;;7.33;2.00;;;;;14.59;100.00;100955.97;5051464;28;45744;-88
2022/02/21 10:54:16;;;;;;;;;6.00;3.67;;;;;14.64;100.00;100968.50;5051323;28;45273;-87
2022/02/21 10:56:44;;;;;;;;;2.67;2.00;;;;;14.84;100.00;100946.22;5052701;28;46579;-88
2022/02/21 10:59:20;;;;;;;;;3.00;1.33;;;;;15.01;100.00;100965.25;5053678;28;45387;-88
2022/02/21 11:01:48;;;;;;;;;1.00;0.67;;;;;15.20;100.00;100936.72;5056132;28;45381;-88
2022/02/21 11:04:13;;;;;;;;;10.00;5.00;;;;;15.26;100.00;100952.75;5051254;28;45831;-87
2022/02/21 11:06:39;;;;;;;;;5.33;2.67;;;;;15.26;100.00;100943.91;5053100;28;45610;-87
2022/02/21 11:09:07;;;;;;;;;7.33;2.67;;;;;15.39;100.00;100956.66;5052438;28;45807;-88
2022/02/21 11:11:35;;;;;;;;;4.00;3.67;;;;;15.41;100.00;100948.78;5051332;28;45588;-88